Axtell, TX

6:44 PM CDT on August 30, 2014 (GMT -0500)
McGregor Executive | Change Station
CLOSE
Current Station
Airport
Location: McGregor,
Elevation: 591 ft
Nearby Weather Stations

Elev 591 ft 31.48 °N, 97.32 °W | Updated 9 minutes ago

Clear
Clear
91 °F
Feels Like 94 °F
N
14
Wind Variable Wind from SE

Today
High -- | Low -- °F
--% Chance of Precip.
Yesterday
High -- | Low -- °F
Precip. -- in
7:02 AM 7:54 PM
Waxing Crescent, 25% visible
Pressure 29.89 in
Visibility 10.0 miles
Clouds Clear
Heat Index 94 °F
Dew Point 66 °F
Humidity 43%
Rainfall 0.00 in
Snow Depth Not available.
UV 1 out of 12
Pollen 8.80 out of 12
Ozone Good
PM2.5 Good
Flu Activity Not available.
METAR KPWG 302335Z AUTO 13012KT 10SM CLR 33/19 A2989 RMK AO1

More Conditions Fewer Conditions

Pressure 29.89 in
Visibility 10.0 miles
Clouds Clear
Heat Index 94 °F
Dew Point 66 °F
Humidity 43%
Rainfall 0.00 in
Snow Depth Not available.
UV 1 out of 12
Pollen 8.80 out of 12
Ozone Good
PM2.5 Good
Flu Activity Not available.
METAR KPWG 302335Z AUTO 13012KT 10SM CLR 33/19 A2989 RMK AO1

More Conditions Fewer Conditions

Nowcast | as of 6:20 PM CDT on August 30, 2014

Isolated showers and thunderstorms between Granbury...Comanche and Killeen were moving southeast at 10 to 15 mph. Strong gusty winds...as well as cloud to ground lightning and brief heavy rain are possible with any storm this evening. Isolated showers and thunderstorms are possible area wide through 10 PM but coverage and intensity should slowly diminish after sunset. Otherwise...expect partly to mostly sunny skies with temperatures dropping into the 80s by 9 PM.

×

10-Day Weather Forecast

Almanac

Astronomy

Aug. 30, 2014 Rise Set
Actual Time 7:02 AM CDT 7:54 PM CDT
Civil Twilight 6:37 AM CDT 8:18 PM CDT
Nautical Twilight 6:08 AM CDT 8:48 PM CDT
Astronomical Twilight 5:37 AM CDT 9:18 PM CDT
Moon 11:31 AM CDT 10:50 PM CDT
Length of Visible Light 13h 41m
Length of Day
12h 51m
Tomorrow will be 1m 51s shorter.
Waxing Crescent, 25% of the Moon is Illuminated
Today
Waxing Crescent
Sep 2
First Quarter
Sep 8
Full
Sep 15
Last Quarter
Sep 24
New

Today's Extremes

State Highs State Lows

Community

WunderPhotos

Upload Photos

1,748,676 photos uploaded!

Nearby

Air Quality

  Air Quality AQ Index Pollutant
Yesterday Good
OZONE
Yesterday Good
PM2.5
Current Good
OZONE
Current Good
PM2.5
Saturday Good
PM10
Saturday Good
OZONE
Sunday Good
PM10
Sunday Good
OZONE
Monday Good
PM10
Monday Good
OZONE
Tuesday Good
PM10
Tuesday Good
OZONE

Snow Depth

Station Depth Elevation
No new snow has been reported.

Earthquake Activity

City Distance Mag. Time & Date
No recent earthquake activity has been reported nearby.
Minimum magnitude displayed is 2.5.

Coastal Water Temperatures

Place Temperature
No Stations Reporting

Nearby Weather Stations